Blytheville, AR

10:02 AM CDT on July 22, 2014 (GMT -0500)
Arkansas International (KBYH) Elev 256 ft | 35.96 °N, 89.94 °W | Change Station

Current weather conditions updated 12 minutes ago

Clear
Clear
82 °F
Feels Like 86 °F
N
0
Wind Variable Wind from North

Today is forecast to be Warmer than yesterday.

Today
High -- | Low -- °F
--% Chance of Precip.
Yesterday
High -- | Low -- °F
Precip. -- in
5:59 AM 8:12 PM
Waning Crescent, 17% visible
Pressure 30.08 in
Visibility 10.0 miles
Clouds Clear
Heat Index 86 °F
Dew Point 70 °F
Humidity 66%
Rainfall 0.00 in
Snow Depth Not available.
UV 6 out of 12
Pollen 4.50 out of 12
Air Quality Not available.
Flu Activity No Activity
METAR KBYH 221450Z 00000KT 10SM SKC 28/21 A3008

More Conditions Fewer Conditions

Pressure 30.08 in
Visibility 10.0 miles
Clouds Clear
Heat Index 86 °F
Dew Point 70 °F
Humidity 66%
Rainfall 0.00 in
Snow Depth Not available.
UV 6 out of 12
Pollen 4.50 out of 12
Air Quality Not available.
Flu Activity No Activity
METAR KBYH 221450Z 00000KT 10SM SKC 28/21 A3008

More Conditions Fewer Conditions

10-Day Weather Forecast

LIGHTNING

Thunderstorms are forecast for your area. Cloud conditions might be right for producing strikes in the next few days, though lightning itself cannot be forecasted.

Lightning is a visible electrical discharge produced by a thunderstorm, based on the build up of oppositely charged particles within a cloud and from cloud to ground.

Know how to stay safe in a lightning storm.

Check out these Lightning WunderPhotos!

Almanac

Astronomy

Jul. 22, 2014 Rise Set
Actual Time 5:59 AM CDT 8:12 PM CDT
Civil Twilight 5:30 AM CDT 8:41 PM CDT
Nautical Twilight 4:55 AM CDT 9:16 PM CDT
Astronomical Twilight 4:16 AM CDT 9:54 PM CDT
Moon 2:31 AM CDT 4:50 PM CDT
Length of Visible Light 15h 10m
Length of Day
14h 12m
Tomorrow will be 1m 25s shorter.
Waning Crescent, 17% of the Moon is Illuminated
Today
Waning Crescent
Jul 26
New
Aug 3
First Quarter
Aug 10
Full
Aug 17
Last Quarter

Today's Extremes

State Highs State Lows

Community

WunderPhotos

Upload Photos

1,736,257 photos uploaded!

Nearby

Snow Depth

Station Depth Elevation
No new snow has been reported.

Earthquake Activity

City Distance Mag. Time & Date
No recent earthquake activity has been reported nearby.
Minimum magnitude displayed is 2.5.

Coastal Water Temperatures

Place Temperature
No Stations Reporting

Nearby Weather Stations

Station Location Temp. Heat Index Dew Point Humidity Wind Precip. Elev Updated Type
KC0UFP WX, Kennett, MO 82.6 °F 87 °F 71 °F 69% East  at  0.0 mph - / hr 262 ft 9:56 AM CDT Normal
Kennett E911, Kennett, MO 84.0 °F 88 °F 70 °F 62% NNW  at  1.0 mph 0.00 in / hr 262 ft 10:01 AM CDT Rapid Fire

Show More Stations Show Fewer Stations